sensor_id;sensor_type;location;lat;lon;timestamp;temperature;humidity
71396;DHT22;59888;55.814;37.132;2022-10-16T00:02:06;6.12;57.92
71396;DHT22;59888;55.814;37.132;2022-10-16T00:04:31;6.11;57.92
71396;DHT22;59888;55.814;37.132;2022-10-16T00:06:57;6.07;58.06
71396;DHT22;59888;55.814;37.132;2022-10-16T00:09:23;6.10;57.98
71396;DHT22;59888;55.814;37.132;2022-10-16T00:11:49;6.08;57.97
71396;DHT22;59888;55.814;37.132;2022-10-16T00:14:15;6.07;57.93
71396;DHT22;59888;55.814;37.132;2022-10-16T00:16:41;6.05;57.90
71396;DHT22;59888;55.814;37.132;2022-10-16T00:19:09;6.02;58.04
71396;DHT22;59888;55.814;37.132;2022-10-16T00:21:35;5.99;58.02
71396;DHT22;59888;55.814;37.132;2022-10-16T00:24:20;5.95;58.12
71396;DHT22;59888;55.814;37.132;2022-10-16T00:26:49;5.92;58.30
71396;DHT22;59888;55.814;37.132;2022-10-16T00:29:14;5.91;58.22
71396;DHT22;59888;55.814;37.132;2022-10-16T00:31:40;5.89;58.17
71396;DHT22;59888;55.814;37.132;2022-10-16T00:34:06;5.87;58.24
71396;DHT22;59888;55.814;37.132;2022-10-16T00:36:32;5.87;58.25
71396;DHT22;59888;55.814;37.132;2022-10-16T00:38:58;5.90;58.23
71396;DHT22;59888;55.814;37.132;2022-10-16T00:41:26;5.89;58.22
71396;DHT22;59888;55.814;37.132;2022-10-16T00:43:57;5.86;58.16
71396;DHT22;59888;55.814;37.132;2022-10-16T00:46:40;5.83;58.42
71396;DHT22;59888;55.814;37.132;2022-10-16T00:49:12;5.83;58.35
71396;DHT22;59888;55.814;37.132;2022-10-16T00:51:52;5.82;58.27
71396;DHT22;59888;55.814;37.132;2022-10-16T00:54:27;5.82;58.39
71396;DHT22;59888;55.814;37.132;2022-10-16T00:56:56;5.81;58.37
71396;DHT22;59888;55.814;37.132;2022-10-16T00:59:36;5.78;58.48
71396;DHT22;59888;55.814;37.132;2022-10-16T01:02:04;5.76;58.32
71396;DHT22;59888;55.814;37.132;2022-10-16T01:04:35;5.72;58.58
71396;DHT22;59888;55.814;37.132;2022-10-16T01:13:10;5.66;58.61
71396;DHT22;59888;55.814;37.132;2022-10-16T01:16:27;5.63;58.63
71396;DHT22;59888;55.814;37.132;2022-10-16T01:18:51;5.60;58.89
71396;DHT22;59888;55.814;37.132;2022-10-16T01:21:31;5.61;58.81
71396;DHT22;59888;55.814;37.132;2022-10-16T01:30:02;5.54;58.89
71396;DHT22;59888;55.814;37.132;2022-10-16T01:35:20;5.43;59.10
71396;DHT22;59888;55.814;37.132;2022-10-16T01:38:12;5.40;58.95
71396;DHT22;59888;55.814;37.132;2022-10-16T01:40:44;5.36;59.17
71396;DHT22;59888;55.814;37.132;2022-10-16T01:43:15;5.35;59.20
71396;DHT22;59888;55.814;37.132;2022-10-16T01:45:44;5.33;59.22
71396;DHT22;59888;55.814;37.132;2022-10-16T01:48:14;5.30;59.25
71396;DHT22;59888;55.814;37.132;2022-10-16T01:50:41;5.30;59.32
71396;DHT22;59888;55.814;37.132;2022-10-16T01:53:10;5.33;59.26
71396;DHT22;59888;55.814;37.132;2022-10-16T01:55:40;5.36;59.28
71396;DHT22;59888;55.814;37.132;2022-10-16T01:58:12;5.37;59.12
71396;DHT22;59888;55.814;37.132;2022-10-16T02:00:40;5.38;59.22
71396;DHT22;59888;55.814;37.132;2022-10-16T02:03:07;5.42;59.12
71396;DHT22;59888;55.814;37.132;2022-10-16T02:05:41;5.41;59.16
71396;DHT22;59888;55.814;37.132;2022-10-16T02:08:08;5.41;59.06
71396;DHT22;59888;55.814;37.132;2022-10-16T02:10:35;5.41;59.10
71396;DHT22;59888;55.814;37.132;2022-10-16T02:13:15;5.41;59.27
71396;DHT22;59888;55.814;37.132;2022-10-16T02:16:02;5.37;59.09
71396;DHT22;59888;55.814;37.132;2022-10-16T02:18:28;5.32;59.14
71396;DHT22;59888;55.814;37.132;2022-10-16T02:21:05;5.27;59.34
71396;DHT22;59888;55.814;37.132;2022-10-16T02:24:22;5.27;59.38
71396;DHT22;59888;55.814;37.132;2022-10-16T02:26:48;5.24;59.56
71396;DHT22;59888;55.814;37.132;2022-10-16T02:29:21;5.21;59.28
71396;DHT22;59888;55.814;37.132;2022-10-16T02:31:50;5.18;59.41
71396;DHT22;59888;55.814;37.132;2022-10-16T02:34:18;5.17;59.03
71396;DHT22;59888;55.814;37.132;2022-10-16T02:36:47;5.15;59.38
71396;DHT22;59888;55.814;37.132;2022-10-16T02:39:14;5.10;59.52
71396;DHT22;59888;55.814;37.132;2022-10-16T02:41:41;5.08;59.64
71396;DHT22;59888;55.814;37.132;2022-10-16T02:44:06;5.06;59.66
71396;DHT22;59888;55.814;37.132;2022-10-16T02:46:32;5.05;59.80
71396;DHT22;59888;55.814;37.132;2022-10-16T02:48:58;5.03;59.79
71396;DHT22;59888;55.814;37.132;2022-10-16T02:51:24;5.06;59.83
71396;DHT22;59888;55.814;37.132;2022-10-16T02:53:49;5.07;59.69
71396;DHT22;59888;55.814;37.132;2022-10-16T02:56:15;5.05;59.70
71396;DHT22;59888;55.814;37.132;2022-10-16T02:58:41;5.04;59.89
71396;DHT22;59888;55.814;37.132;2022-10-16T03:01:07;5.03;59.86
71396;DHT22;59888;55.814;37.132;2022-10-16T03:03:33;5.02;59.47
71396;DHT22;59888;55.814;37.132;2022-10-16T03:05:59;5.00;59.83
71396;DHT22;59888;55.814;37.132;2022-10-16T03:08:24;4.97;59.87
71396;DHT22;59888;55.814;37.132;2022-10-16T03:10:51;4.94;59.90
71396;DHT22;59888;55.814;37.132;2022-10-16T03:13:17;4.89;60.04
71396;DHT22;59888;55.814;37.132;2022-10-16T03:15:43;4.88;59.95
71396;DHT22;59888;55.814;37.132;2022-10-16T03:18:09;4.88;60.06
71396;DHT22;59888;55.814;37.132;2022-10-16T03:20:35;4.86;59.93
71396;DHT22;59888;55.814;37.132;2022-10-16T03:23:01;4.87;60.28
71396;DHT22;59888;55.814;37.132;2022-10-16T03:25:28;4.86;59.66
71396;DHT22;59888;55.814;37.132;2022-10-16T03:27:53;4.81;60.18
71396;DHT22;59888;55.814;37.132;2022-10-16T03:30:19;4.80;60.07
71396;DHT22;59888;55.814;37.132;2022-10-16T03:32:46;4.77;60.07
71396;DHT22;59888;55.814;37.132;2022-10-16T03:35:12;4.77;60.23
71396;DHT22;59888;55.814;37.132;2022-10-16T03:37:38;4.79;60.10
71396;DHT22;59888;55.814;37.132;2022-10-16T03:40:04;4.80;60.20
71396;DHT22;59888;55.814;37.132;2022-10-16T03:42:30;4.81;60.24
71396;DHT22;59888;55.814;37.132;2022-10-16T03:44:56;4.81;60.12
71396;DHT22;59888;55.814;37.132;2022-10-16T03:47:22;4.79;60.12
71396;DHT22;59888;55.814;37.132;2022-10-16T03:49:49;4.77;59.98
71396;DHT22;59888;55.814;37.132;2022-10-16T03:52:16;4.74;60.19
71396;DHT22;59888;55.814;37.132;2022-10-16T03:54:41;4.68;60.49
71396;DHT22;59888;55.814;37.132;2022-10-16T03:57:07;4.71;60.31
71396;DHT22;59888;55.814;37.132;2022-10-16T03:59:33;4.72;60.28
71396;DHT22;59888;55.814;37.132;2022-10-16T04:01:59;4.73;60.26
71396;DHT22;59888;55.814;37.132;2022-10-16T04:04:24;4.69;60.34
71396;DHT22;59888;55.814;37.132;2022-10-16T04:06:51;4.68;60.43
71396;DHT22;59888;55.814;37.132;2022-10-16T04:09:16;4.66;60.58
71396;DHT22;59888;55.814;37.132;2022-10-16T04:11:42;4.66;60.64
71396;DHT22;59888;55.814;37.132;2022-10-16T04:14:08;4.66;60.50
71396;DHT22;59888;55.814;37.132;2022-10-16T04:16:34;4.66;60.42
71396;DHT22;59888;55.814;37.132;2022-10-16T04:19:00;4.64;60.76
71396;DHT22;59888;55.814;37.132;2022-10-16T04:21:26;4.63;60.63
71396;DHT22;59888;55.814;37.132;2022-10-16T04:23:52;4.62;60.73
71396;DHT22;59888;55.814;37.132;2022-10-16T04:26:17;4.64;60.76
71396;DHT22;59888;55.814;37.132;2022-10-16T04:28:43;4.65;60.64
71396;DHT22;59888;55.814;37.132;2022-10-16T04:31:09;4.65;60.65
71396;DHT22;59888;55.814;37.132;2022-10-16T04:33:35;4.67;60.71
71396;DHT22;59888;55.814;37.132;2022-10-16T04:36:01;4.72;60.64
71396;DHT22;59888;55.814;37.132;2022-10-16T04:38:28;4.75;60.70
71396;DHT22;59888;55.814;37.132;2022-10-16T04:40:54;4.76;60.55
71396;DHT22;59888;55.814;37.132;2022-10-16T04:43:20;4.76;60.50
71396;DHT22;59888;55.814;37.132;2022-10-16T04:45:46;4.80;60.35
71396;DHT22;59888;55.814;37.132;2022-10-16T04:48:12;4.79;60.51
71396;DHT22;59888;55.814;37.132;2022-10-16T04:50:38;4.80;60.51
71396;DHT22;59888;55.814;37.132;2022-10-16T04:53:06;4.89;60.34
71396;DHT22;59888;55.814;37.132;2022-10-16T04:55:33;4.91;60.35
71396;DHT22;59888;55.814;37.132;2022-10-16T04:57:59;4.98;60.41
71396;DHT22;59888;55.814;37.132;2022-10-16T05:00:25;5.03;60.29
71396;DHT22;59888;55.814;37.132;2022-10-16T05:02:51;5.06;60.18
71396;DHT22;59888;55.814;37.132;2022-10-16T05:05:17;5.09;60.20
71396;DHT22;59888;55.814;37.132;2022-10-16T05:07:46;5.11;60.22
71396;DHT22;59888;55.814;37.132;2022-10-16T05:10:12;5.16;60.02
71396;DHT22;59888;55.814;37.132;2022-10-16T05:12:38;5.18;59.98
71396;DHT22;59888;55.814;37.132;2022-10-16T05:15:04;5.20;60.09
71396;DHT22;59888;55.814;37.132;2022-10-16T05:17:30;5.24;60.02
71396;DHT22;59888;55.814;37.132;2022-10-16T05:19:56;5.32;60.03
71396;DHT22;59888;55.814;37.132;2022-10-16T05:22:22;5.40;59.96
71396;DHT22;59888;55.814;37.132;2022-10-16T05:24:48;5.47;59.72
71396;DHT22;59888;55.814;37.132;2022-10-16T05:27:14;5.50;59.61
71396;DHT22;59888;55.814;37.132;2022-10-16T05:29:46;5.54;59.55
71396;DHT22;59888;55.814;37.132;2022-10-16T05:32:15;5.56;59.42
71396;DHT22;59888;55.814;37.132;2022-10-16T05:34:42;5.63;59.54
71396;DHT22;59888;55.814;37.132;2022-10-16T05:37:08;5.71;59.44
71396;DHT22;59888;55.814;37.132;2022-10-16T05:39:34;5.82;59.29
71396;DHT22;59888;55.814;37.132;2022-10-16T05:42:00;5.90;59.22
71396;DHT22;59888;55.814;37.132;2022-10-16T05:44:26;5.98;59.07
71396;DHT22;59888;55.814;37.132;2022-10-16T05:46:51;6.04;58.99
71396;DHT22;59888;55.814;37.132;2022-10-16T05:49:17;6.11;58.85
71396;DHT22;59888;55.814;37.132;2022-10-16T05:51:43;6.17;58.74
71396;DHT22;59888;55.814;37.132;2022-10-16T05:54:09;6.22;58.67
71396;DHT22;59888;55.814;37.132;2022-10-16T05:56:35;6.26;58.63
71396;DHT22;59888;55.814;37.132;2022-10-16T05:59:00;6.31;58.48
71396;DHT22;59888;55.814;37.132;2022-10-16T06:01:26;6.39;58.49
71396;DHT22;59888;55.814;37.132;2022-10-16T06:03:53;6.49;58.29
71396;DHT22;59888;55.814;37.132;2022-10-16T06:06:23;6.58;58.25
71396;DHT22;59888;55.814;37.132;2022-10-16T06:08:52;6.64;58.20
71396;DHT22;59888;55.814;37.132;2022-10-16T06:11:20;6.75;58.16
71396;DHT22;59888;55.814;37.132;2022-10-16T06:13:50;6.91;57.88
71396;DHT22;59888;55.814;37.132;2022-10-16T06:16:17;7.00;57.80
71396;DHT22;59888;55.814;37.132;2022-10-16T06:18:43;7.10;57.49
71396;DHT22;59888;55.814;37.132;2022-10-16T06:21:14;7.16;57.45
71396;DHT22;59888;55.814;37.132;2022-10-16T06:23:42;7.25;57.29
71396;DHT22;59888;55.814;37.132;2022-10-16T06:26:13;7.31;57.16
71396;DHT22;59888;55.814;37.132;2022-10-16T06:28:40;7.39;57.05
71396;DHT22;59888;55.814;37.132;2022-10-16T06:31:07;7.48;57.01
71396;DHT22;59888;55.814;37.132;2022-10-16T06:33:33;7.61;56.87
71396;DHT22;59888;55.814;37.132;2022-10-16T06:36:13;7.73;56.80
71396;DHT22;59888;55.814;37.132;2022-10-16T06:38:39;7.89;56.66
71396;DHT22;59888;55.814;37.132;2022-10-16T06:41:05;8.01;56.46
71396;DHT22;59888;55.814;37.132;2022-10-16T06:43:32;8.11;56.31
71396;DHT22;59888;55.814;37.132;2022-10-16T06:45:59;8.17;55.97
71396;DHT22;59888;55.814;37.132;2022-10-16T06:48:26;8.24;56.00
71396;DHT22;59888;55.814;37.132;2022-10-16T06:51:11;8.39;55.84
71396;DHT22;59888;55.814;37.132;2022-10-16T06:53:40;8.46;55.58
71396;DHT22;59888;55.814;37.132;2022-10-16T06:56:11;8.51;55.59
71396;DHT22;59888;55.814;37.132;2022-10-16T06:58:38;8.62;55.23
71396;DHT22;59888;55.814;37.132;2022-10-16T07:01:05;8.73;55.39
71396;DHT22;59888;55.814;37.132;2022-10-16T07:03:31;8.80;55.23
71396;DHT22;59888;55.814;37.132;2022-10-16T07:06:00;8.91;55.07
71396;DHT22;59888;55.814;37.132;2022-10-16T07:08:26;9.01;54.97
71396;DHT22;59888;55.814;37.132;2022-10-16T07:11:03;9.12;54.81
71396;DHT22;59888;55.814;37.132;2022-10-16T07:13:29;9.15;54.65
71396;DHT22;59888;55.814;37.132;2022-10-16T07:15:55;9.22;54.52
71396;DHT22;59888;55.814;37.132;2022-10-16T07:18:21;9.36;54.44
71396;DHT22;59888;55.814;37.132;2022-10-16T07:20:47;9.48;54.46
71396;DHT22;59888;55.814;37.132;2022-10-16T07:23:13;9.52;54.25
71396;DHT22;59888;55.814;37.132;2022-10-16T07:25:38;9.65;54.30
71396;DHT22;59888;55.814;37.132;2022-10-16T07:28:04;9.76;54.04
71396;DHT22;59888;55.814;37.132;2022-10-16T07:30:30;9.78;53.75
71396;DHT22;59888;55.814;37.132;2022-10-16T07:32:56;9.84;53.49
71396;DHT22;59888;55.814;37.132;2022-10-16T07:35:21;9.92;53.73
71396;DHT22;59888;55.814;37.132;2022-10-16T07:37:47;10.03;53.67
71396;DHT22;59888;55.814;37.132;2022-10-16T07:40:13;10.12;53.33
71396;DHT22;59888;55.814;37.132;2022-10-16T07:42:39;10.22;53.54
71396;DHT22;59888;55.814;37.132;2022-10-16T07:45:05;10.27;53.20
71396;DHT22;59888;55.814;37.132;2022-10-16T07:47:31;10.37;52.98
71396;DHT22;59888;55.814;37.132;2022-10-16T07:49:56;10.50;52.84
71396;DHT22;59888;55.814;37.132;2022-10-16T07:52:22;0.00;0.00
71396;DHT22;59888;55.814;37.132;2022-10-16T07:54:48;0.00;0.00
71396;DHT22;59888;55.814;37.132;2022-10-16T07:57:14;10.80;52.20
71396;DHT22;59888;55.814;37.132;2022-10-16T07:59:46;10.83;51.67
71396;DHT22;59888;55.814;37.132;2022-10-16T08:02:12;10.93;51.75
71396;DHT22;59888;55.814;37.132;2022-10-16T08:04:38;11.03;51.53
71396;DHT22;59888;55.814;37.132;2022-10-16T08:07:03;11.07;51.34
71396;DHT22;59888;55.814;37.132;2022-10-16T08:09:29;11.07;50.99
71396;DHT22;59888;55.814;37.132;2022-10-16T08:11:55;11.22;51.53
71396;DHT22;59888;55.814;37.132;2022-10-16T08:14:21;11.39;51.20
71396;DHT22;59888;55.814;37.132;2022-10-16T08:16:46;11.51;50.84
71396;DHT22;59888;55.814;37.132;2022-10-16T08:19:12;11.56;50.61
71396;DHT22;59888;55.814;37.132;2022-10-16T08:21:38;11.61;50.55
71396;DHT22;59888;55.814;37.132;2022-10-16T08:24:04;11.69;50.59
71396;DHT22;59888;55.814;37.132;2022-10-16T08:26:30;11.84;50.68
71396;DHT22;59888;55.814;37.132;2022-10-16T08:28:56;11.89;49.57
71396;DHT22;59888;55.814;37.132;2022-10-16T08:31:22;11.91;50.29
71396;DHT22;59888;55.814;37.132;2022-10-16T08:33:48;11.91;49.81
71396;DHT22;59888;55.814;37.132;2022-10-16T08:36:16;11.90;49.53
71396;DHT22;59888;55.814;37.132;2022-10-16T08:38:41;11.88;48.89
71396;DHT22;59888;55.814;37.132;2022-10-16T08:49:11;12.31;48.92
71396;DHT22;59888;55.814;37.132;2022-10-16T08:51:39;12.33;48.83
71396;DHT22;59888;55.814;37.132;2022-10-16T08:56:55;12.48;49.44
71396;DHT22;59888;55.814;37.132;2022-10-16T08:59:21;12.48;47.98
71396;DHT22;59888;55.814;37.132;2022-10-16T09:01:50;12.56;47.63
71396;DHT22;59888;55.814;37.132;2022-10-16T09:07:34;12.77;46.73
71396;DHT22;59888;55.814;37.132;2022-10-16T09:10:28;12.81;46.97
71396;DHT22;59888;55.814;37.132;2022-10-16T09:13:31;12.86;46.93
71396;DHT22;59888;55.814;37.132;2022-10-16T09:16:11;12.93;47.84
71396;DHT22;59888;55.814;37.132;2022-10-16T09:18:57;12.93;45.88
71396;DHT22;59888;55.814;37.132;2022-10-16T09:21:29;13.01;46.49
71396;DHT22;59888;55.814;37.132;2022-10-16T09:24:23;13.12;46.21
71396;DHT22;59888;55.814;37.132;2022-10-16T09:26:50;13.22;46.66
71396;DHT22;59888;55.814;37.132;2022-10-16T09:29:18;13.24;45.86
71396;DHT22;59888;55.814;37.132;2022-10-16T09:31:48;13.22;45.83
71396;DHT22;59888;55.814;37.132;2022-10-16T09:34:34;13.30;45.39
71396;DHT22;59888;55.814;37.132;2022-10-16T09:37:04;13.38;46.22
71396;DHT22;59888;55.814;37.132;2022-10-16T09:39:31;13.47;45.97
71396;DHT22;59888;55.814;37.132;2022-10-16T09:42:13;13.49;46.26
71396;DHT22;59888;55.814;37.132;2022-10-16T09:44:40;13.54;44.88
71396;DHT22;59888;55.814;37.132;2022-10-16T09:50:05;13.52;44.93
71396;DHT22;59888;55.814;37.132;2022-10-16T09:52:44;13.56;45.78
71396;DHT22;59888;55.814;37.132;2022-10-16T09:55:16;13.59;44.29
71396;DHT22;59888;55.814;37.132;2022-10-16T09:57:52;13.56;42.32
71396;DHT22;59888;55.814;37.132;2022-10-16T10:00:19;13.61;42.48
71396;DHT22;59888;55.814;37.132;2022-10-16T10:02:45;13.59;42.65
71396;DHT22;59888;55.814;37.132;2022-10-16T10:05:25;13.59;43.37
71396;DHT22;59888;55.814;37.132;2022-10-16T10:08:00;13.62;42.36
71396;DHT22;59888;55.814;37.132;2022-10-16T10:10:29;13.60;42.21
71396;DHT22;59888;55.814;37.132;2022-10-16T10:12:56;13.54;42.83
71396;DHT22;59888;55.814;37.132;2022-10-16T10:15:27;13.52;42.81
71396;DHT22;59888;55.814;37.132;2022-10-16T10:17:55;13.59;43.04
71396;DHT22;59888;55.814;37.132;2022-10-16T10:23:13;13.71;43.19
71396;DHT22;59888;55.814;37.132;2022-10-16T10:25:49;13.76;44.58
71396;DHT22;59888;55.814;37.132;2022-10-16T10:31:14;13.71;43.80
71396;DHT22;59888;55.814;37.132;2022-10-16T10:36:40;13.69;42.25
71396;DHT22;59888;55.814;37.132;2022-10-16T10:39:20;13.67;42.81
71396;DHT22;59888;55.814;37.132;2022-10-16T10:47:47;13.63;39.81
71396;DHT22;59888;55.814;37.132;2022-10-16T10:50:25;13.73;42.50
71396;DHT22;59888;55.814;37.132;2022-10-16T11:01:13;13.88;42.84
71396;DHT22;59888;55.814;37.132;2022-10-16T11:06:44;14.03;43.24
71396;DHT22;59888;55.814;37.132;2022-10-16T11:09:21;14.11;42.46
71396;DHT22;59888;55.814;37.132;2022-10-16T11:16:58;14.24;42.42
71396;DHT22;59888;55.814;37.132;2022-10-16T11:19:44;14.21;41.71
71396;DHT22;59888;55.814;37.132;2022-10-16T11:22:32;14.24;42.32
71396;DHT22;59888;55.814;37.132;2022-10-16T11:30:51;14.40;42.23
71396;DHT22;59888;55.814;37.132;2022-10-16T11:33:32;14.41;42.55
71396;DHT22;59888;55.814;37.132;2022-10-16T11:36:23;14.36;39.78
71396;DHT22;59888;55.814;37.132;2022-10-16T11:41:45;14.35;41.93
71396;DHT22;59888;55.814;37.132;2022-10-16T11:49:55;14.53;41.67
71396;DHT22;59888;55.814;37.132;2022-10-16T11:55:29;14.59;42.26
71396;DHT22;59888;55.814;37.132;2022-10-16T11:58:05;14.67;41.93
71396;DHT22;59888;55.814;37.132;2022-10-16T12:03:25;14.75;39.84
71396;DHT22;59888;55.814;37.132;2022-10-16T12:08:36;14.87;40.22
71396;DHT22;59888;55.814;37.132;2022-10-16T12:16:38;14.93;41.32
71396;DHT22;59888;55.814;37.132;2022-10-16T12:19:15;15.36;39.91
71396;DHT22;59888;55.814;37.132;2022-10-16T12:21:43;16.73;40.04
71396;DHT22;59888;55.814;37.132;2022-10-16T12:24:38;19.46;34.11
71396;DHT22;59888;55.814;37.132;2022-10-16T12:27:19;21.37;32.83
71396;DHT22;59888;55.814;37.132;2022-10-16T12:29:45;22.67;28.53
71396;DHT22;59888;55.814;37.132;2022-10-16T12:32:38;23.57;30.45
71396;DHT22;59888;55.814;37.132;2022-10-16T12:35:16;24.30;30.41
71396;DHT22;59888;55.814;37.132;2022-10-16T12:37:44;25.00;30.71
71396;DHT22;59888;55.814;37.132;2022-10-16T12:40:13;0.00;0.00
71396;DHT22;59888;55.814;37.132;2022-10-16T12:42:40;0.00;0.00
71396;DHT22;59888;55.814;37.132;2022-10-16T12:47:53;28.59;29.06
71396;DHT22;59888;55.814;37.132;2022-10-16T12:50:37;0.00;0.00
71396;DHT22;59888;55.814;37.132;2022-10-16T12:53:20;28.87;26.70
71396;DHT22;59888;55.814;37.132;2022-10-16T13:06:58;30.09;24.29
71396;DHT22;59888;55.814;37.132;2022-10-16T13:20:06;30.89;25.83
71396;DHT22;59888;55.814;37.132;2022-10-16T13:22:51;30.87;24.89
71396;DHT22;59888;55.814;37.132;2022-10-16T13:28:30;30.91;26.34
71396;DHT22;59888;55.814;37.132;2022-10-16T13:30:59;30.42;24.97
71396;DHT22;59888;55.814;37.132;2022-10-16T13:33:41;30.05;24.85
71396;DHT22;59888;55.814;37.132;2022-10-16T13:36:23;29.43;23.56
71396;DHT22;59888;55.814;37.132;2022-10-16T13:39:00;28.44;23.96
71396;DHT22;59888;55.814;37.132;2022-10-16T13:41:26;27.64;25.60
71396;DHT22;59888;55.814;37.132;2022-10-16T13:43:53;27.05;26.89
71396;DHT22;59888;55.814;37.132;2022-10-16T13:46:22;26.22;26.16
71396;DHT22;59888;55.814;37.132;2022-10-16T13:49:00;25.68;23.39
71396;DHT22;59888;55.814;37.132;2022-10-16T13:51:27;24.49;27.33
71396;DHT22;59888;55.814;37.132;2022-10-16T13:53:55;23.36;28.23
71396;DHT22;59888;55.814;37.132;2022-10-16T13:56:25;22.41;28.19
71396;DHT22;59888;55.814;37.132;2022-10-16T14:01:49;21.05;29.45
71396;DHT22;59888;55.814;37.132;2022-10-16T14:04:16;20.24;31.10
71396;DHT22;59888;55.814;37.132;2022-10-16T14:06:45;19.57;31.28
71396;DHT22;59888;55.814;37.132;2022-10-16T14:11:56;18.29;32.20
71396;DHT22;59888;55.814;37.132;2022-10-16T14:14:22;17.78;33.14
71396;DHT22;59888;55.814;37.132;2022-10-16T14:16:48;17.40;33.63
71396;DHT22;59888;55.814;37.132;2022-10-16T14:19:25;16.94;34.03
71396;DHT22;59888;55.814;37.132;2022-10-16T14:21:52;16.50;34.62
71396;DHT22;59888;55.814;37.132;2022-10-16T14:26:55;15.73;35.45
71396;DHT22;59888;55.814;37.132;2022-10-16T14:29:23;15.42;35.98
71396;DHT22;59888;55.814;37.132;2022-10-16T14:32:05;15.10;36.08
71396;DHT22;59888;55.814;37.132;2022-10-16T14:34:33;14.82;36.57
71396;DHT22;59888;55.814;37.132;2022-10-16T14:37:01;14.56;36.92
71396;DHT22;59888;55.814;37.132;2022-10-16T14:39:33;14.34;37.27
71396;DHT22;59888;55.814;37.132;2022-10-16T14:41:59;14.09;37.60
71396;DHT22;59888;55.814;37.132;2022-10-16T14:44:31;13.91;38.00
71396;DHT22;59888;55.814;37.132;2022-10-16T14:47:05;13.73;38.21
71396;DHT22;59888;55.814;37.132;2022-10-16T14:49:33;13.55;38.40
71396;DHT22;59888;55.814;37.132;2022-10-16T14:51:59;13.40;38.69
71396;DHT22;59888;55.814;37.132;2022-10-16T14:54:24;13.24;38.90
71396;DHT22;59888;55.814;37.132;2022-10-16T14:56:56;13.09;39.33
71396;DHT22;59888;55.814;37.132;2022-10-16T14:59:39;12.94;39.66
71396;DHT22;59888;55.814;37.132;2022-10-16T15:04:46;12.66;39.74
71396;DHT22;59888;55.814;37.132;2022-10-16T15:07:12;12.51;40.13
71396;DHT22;59888;55.814;37.132;2022-10-16T15:09:38;12.43;40.23
71396;DHT22;59888;55.814;37.132;2022-10-16T15:12:04;12.32;40.65
71396;DHT22;59888;55.814;37.132;2022-10-16T15:14:30;12.25;40.84
71396;DHT22;59888;55.814;37.132;2022-10-16T15:16:55;12.16;40.90
71396;DHT22;59888;55.814;37.132;2022-10-16T15:19:21;12.08;41.05
71396;DHT22;59888;55.814;37.132;2022-10-16T15:21:47;12.01;41.19
71396;DHT22;59888;55.814;37.132;2022-10-16T15:24:14;11.90;41.44
71396;DHT22;59888;55.814;37.132;2022-10-16T15:26:41;11.85;41.41
71396;DHT22;59888;55.814;37.132;2022-10-16T15:29:07;11.75;41.65
71396;DHT22;59888;55.814;37.132;2022-10-16T15:31:33;11.68;41.81
71396;DHT22;59888;55.814;37.132;2022-10-16T15:33:59;11.63;41.94
71396;DHT22;59888;55.814;37.132;2022-10-16T15:36:32;11.56;42.28
71396;DHT22;59888;55.814;37.132;2022-10-16T15:39:03;11.48;42.27
71396;DHT22;59888;55.814;37.132;2022-10-16T15:41:29;11.42;42.41
71396;DHT22;59888;55.814;37.132;2022-10-16T15:43:55;11.34;42.45
71396;DHT22;59888;55.814;37.132;2022-10-16T15:46:23;11.25;42.77
71396;DHT22;59888;55.814;37.132;2022-10-16T15:48:50;11.17;42.92
71396;DHT22;59888;55.814;37.132;2022-10-16T15:51:17;11.10;42.91
71396;DHT22;59888;55.814;37.132;2022-10-16T15:53:43;11.04;43.00
71396;DHT22;59888;55.814;37.132;2022-10-16T15:56:12;10.97;43.26
71396;DHT22;59888;55.814;37.132;2022-10-16T15:58:39;10.92;43.48
71396;DHT22;59888;55.814;37.132;2022-10-16T16:01:04;10.85;43.51
71396;DHT22;59888;55.814;37.132;2022-10-16T16:03:32;10.81;43.64
71396;DHT22;59888;55.814;37.132;2022-10-16T16:06:03;10.74;43.77
71396;DHT22;59888;55.814;37.132;2022-10-16T16:08:28;10.70;43.87
71396;DHT22;59888;55.814;37.132;2022-10-16T16:11:03;10.66;44.18
71396;DHT22;59888;55.814;37.132;2022-10-16T16:13:29;10.60;44.24
71396;DHT22;59888;55.814;37.132;2022-10-16T16:15:55;10.58;44.18
71396;DHT22;59888;55.814;37.132;2022-10-16T16:18:21;10.56;44.35
71396;DHT22;59888;55.814;37.132;2022-10-16T16:20:50;10.53;44.34
71396;DHT22;59888;55.814;37.132;2022-10-16T16:23:16;10.49;44.19
71396;DHT22;59888;55.814;37.132;2022-10-16T16:25:42;10.45;44.17
71396;DHT22;59888;55.814;37.132;2022-10-16T16:28:08;10.42;44.55
71396;DHT22;59888;55.814;37.132;2022-10-16T16:30:36;10.40;44.44
71396;DHT22;59888;55.814;37.132;2022-10-16T16:33:03;10.36;44.38
71396;DHT22;59888;55.814;37.132;2022-10-16T16:35:28;0.00;44.71
71396;DHT22;59888;55.814;37.132;2022-10-16T16:37:54;10.29;44.91
71396;DHT22;59888;55.814;37.132;2022-10-16T16:40:20;10.27;45.05
71396;DHT22;59888;55.814;37.132;2022-10-16T16:42:48;10.24;45.44
71396;DHT22;59888;55.814;37.132;2022-10-16T16:45:14;10.23;45.25
71396;DHT22;59888;55.814;37.132;2022-10-16T16:47:40;10.21;45.25
71396;DHT22;59888;55.814;37.132;2022-10-16T16:50:06;10.20;44.87
71396;DHT22;59888;55.814;37.132;2022-10-16T16:52:34;10.18;45.11
71396;DHT22;59888;55.814;37.132;2022-10-16T16:55:00;10.15;44.99
71396;DHT22;59888;55.814;37.132;2022-10-16T16:57:28;10.16;45.39
71396;DHT22;59888;55.814;37.132;2022-10-16T16:59:54;10.13;45.38
71396;DHT22;59888;55.814;37.132;2022-10-16T17:02:20;10.11;45.02
71396;DHT22;59888;55.814;37.132;2022-10-16T17:04:45;10.06;44.84
71396;DHT22;59888;55.814;37.132;2022-10-16T17:07:11;10.05;44.96
71396;DHT22;59888;55.814;37.132;2022-10-16T17:09:37;10.00;45.25
71396;DHT22;59888;55.814;37.132;2022-10-16T17:12:05;9.97;45.59
71396;DHT22;59888;55.814;37.132;2022-10-16T17:14:31;9.95;45.54
71396;DHT22;59888;55.814;37.132;2022-10-16T17:16:57;9.93;45.87
71396;DHT22;59888;55.814;37.132;2022-10-16T17:19:23;9.90;45.73
71396;DHT22;59888;55.814;37.132;2022-10-16T17:21:49;9.90;45.85
71396;DHT22;59888;55.814;37.132;2022-10-16T17:24:15;9.88;46.45
71396;DHT22;59888;55.814;37.132;2022-10-16T17:26:41;9.85;45.86
71396;DHT22;59888;55.814;37.132;2022-10-16T17:29:14;9.84;45.95
71396;DHT22;59888;55.814;37.132;2022-10-16T17:31:40;9.83;45.83
71396;DHT22;59888;55.814;37.132;2022-10-16T17:34:07;9.81;45.67
71396;DHT22;59888;55.814;37.132;2022-10-16T17:36:35;9.80;45.90
71396;DHT22;59888;55.814;37.132;2022-10-16T17:39:10;9.75;46.42
71396;DHT22;59888;55.814;37.132;2022-10-16T17:41:36;9.72;45.83
71396;DHT22;59888;55.814;37.132;2022-10-16T17:44:03;9.70;45.66
71396;DHT22;59888;55.814;37.132;2022-10-16T17:46:30;9.69;45.98
71396;DHT22;59888;55.814;37.132;2022-10-16T17:48:56;9.67;45.81